sensor_id;sensor_type;location;lat;lon;timestamp;pressure;altitude;pressure_sealevel;temperature
67515;BMP280;60646;55.802;37.032;2023-11-19T00:02:23;100598.03;;;-2.79
67515;BMP280;60646;55.802;37.032;2023-11-19T00:04:49;100587.09;;;-2.88
67515;BMP280;60646;55.802;37.032;2023-11-19T00:07:15;100603.25;;;-2.79
67515;BMP280;60646;55.802;37.032;2023-11-19T00:09:41;100599.81;;;-2.87
67515;BMP280;60646;55.802;37.032;2023-11-19T00:12:07;100577.31;;;-2.95
67515;BMP280;60646;55.802;37.032;2023-11-19T00:14:33;100572.78;;;-3.01
67515;BMP280;60646;55.802;37.032;2023-11-19T00:17:00;100588.50;;;-2.94
67515;BMP280;60646;55.802;37.032;2023-11-19T00:19:26;100579.84;;;-3.02
67515;BMP280;60646;55.802;37.032;2023-11-19T00:21:52;100585.13;;;-2.98
67515;BMP280;60646;55.802;37.032;2023-11-19T00:24:18;100593.34;;;-2.96
67515;BMP280;60646;55.802;37.032;2023-11-19T00:26:46;100594.50;;;-2.94
67515;BMP280;60646;55.802;37.032;2023-11-19T00:29:12;100567.47;;;-3.09
67515;BMP280;60646;55.802;37.032;2023-11-19T00:31:40;100593.75;;;-2.94
67515;BMP280;60646;55.802;37.032;2023-11-19T00:34:05;100577.91;;;-3.09
67515;BMP280;60646;55.802;37.032;2023-11-19T00:36:31;100579.84;;;-3.06
67515;BMP280;60646;55.802;37.032;2023-11-19T00:38:57;100559.97;;;-3.14
67515;BMP280;60646;55.802;37.032;2023-11-19T00:41:24;100560.38;;;-3.12
67515;BMP280;60646;55.802;37.032;2023-11-19T00:43:51;100563.75;;;-3.08
67515;BMP280;60646;55.802;37.032;2023-11-19T00:46:17;100567.16;;;-3.04
67515;BMP280;60646;55.802;37.032;2023-11-19T00:48:43;100569.75;;;-3.04
67515;BMP280;60646;55.802;37.032;2023-11-19T00:51:11;100566.03;;;-3.03
67515;BMP280;60646;55.802;37.032;2023-11-19T00:53:37;100550.31;;;-3.10
67515;BMP280;60646;55.802;37.032;2023-11-19T00:56:04;100545.03;;;-3.13
67515;BMP280;60646;55.802;37.032;2023-11-19T00:58:29;100546.19;;;-3.11
67515;BMP280;60646;55.802;37.032;2023-11-19T01:00:55;100558.56;;;-3.04
67515;BMP280;60646;55.802;37.032;2023-11-19T01:03:23;100557.09;;;-3.01
67515;BMP280;60646;55.802;37.032;2023-11-19T01:05:48;100549.19;;;-3.09
67515;BMP280;60646;55.802;37.032;2023-11-19T01:08:14;100539.47;;;-3.12
67515;BMP280;60646;55.802;37.032;2023-11-19T01:10:41;100546.97;;;-3.07
67515;BMP280;60646;55.802;37.032;2023-11-19T01:13:07;100533.13;;;-3.11
67515;BMP280;60646;55.802;37.032;2023-11-19T01:15:33;100551.88;;;-3.01
67515;BMP280;60646;55.802;37.032;2023-11-19T01:17:58;100534.63;;;-3.10
67515;BMP280;60646;55.802;37.032;2023-11-19T01:20:24;100533.13;;;-3.11
67515;BMP280;60646;55.802;37.032;2023-11-19T01:22:52;100534.59;;;-3.13
67515;BMP280;60646;55.802;37.032;2023-11-19T01:25:17;100530.91;;;-3.09
67515;BMP280;60646;55.802;37.032;2023-11-19T01:27:44;100533.50;;;-3.09
67515;BMP280;60646;55.802;37.032;2023-11-19T01:30:11;100541.41;;;-3.01
67515;BMP280;60646;55.802;37.032;2023-11-19T01:32:39;100526.41;;;-3.08
67515;BMP280;60646;55.802;37.032;2023-11-19T01:35:06;100541.84;;;-2.96
67515;BMP280;60646;55.802;37.032;2023-11-19T01:37:33;100526.53;;;-2.97
67515;BMP280;60646;55.802;37.032;2023-11-19T01:40:00;100519.00;;;-3.03
67515;BMP280;60646;55.802;37.032;2023-11-19T01:42:26;100507.47;;;-2.98
67515;BMP280;60646;55.802;37.032;2023-11-19T01:45:00;100519.94;;;-2.84
67515;BMP280;60646;55.802;37.032;2023-11-19T01:47:27;100508.34;;;-2.87
67515;BMP280;60646;55.802;37.032;2023-11-19T01:49:54;100512.16;;;-2.77
67515;BMP280;60646;55.802;37.032;2023-11-19T01:52:21;100505.78;;;-2.80
67515;BMP280;60646;55.802;37.032;2023-11-19T01:54:47;100514.03;;;-2.74
67515;BMP280;60646;55.802;37.032;2023-11-19T01:57:13;100512.63;;;-2.65
67515;BMP280;60646;55.802;37.032;2023-11-19T01:59:40;100518.59;;;-2.64
67515;BMP280;60646;55.802;37.032;2023-11-19T02:02:07;100507.38;;;-2.65
67515;BMP280;60646;55.802;37.032;2023-11-19T02:04:33;100514.94;;;-2.59
67515;BMP280;60646;55.802;37.032;2023-11-19T02:07:00;100515.72;;;-2.52
67515;BMP280;60646;55.802;37.032;2023-11-19T02:09:26;100501.41;;;-2.65
67515;BMP280;60646;55.802;37.032;2023-11-19T02:11:53;100517.22;;;-2.51
67515;BMP280;60646;55.802;37.032;2023-11-19T02:14:24;100506.00;;;-2.51
67515;BMP280;60646;55.802;37.032;2023-11-19T02:16:52;100494.00;;;-2.59
67515;BMP280;60646;55.802;37.032;2023-11-19T02:19:21;100503.75;;;-2.49
67515;BMP280;60646;55.802;37.032;2023-11-19T02:22:07;100498.56;;;-2.46
67515;BMP280;60646;55.802;37.032;2023-11-19T02:24:33;100495.56;;;-2.48
67515;BMP280;60646;55.802;37.032;2023-11-19T02:27:09;100504.59;;;-2.35
67515;BMP280;60646;55.802;37.032;2023-11-19T02:29:36;100491.16;;;-2.37
67515;BMP280;60646;55.802;37.032;2023-11-19T02:32:03;100514.41;;;-2.25
67515;BMP280;60646;55.802;37.032;2023-11-19T02:34:29;100506.47;;;-2.32
67515;BMP280;60646;55.802;37.032;2023-11-19T02:36:54;100495.66;;;-2.30
67515;BMP280;60646;55.802;37.032;2023-11-19T02:39:20;100504.72;;;-2.17
67515;BMP280;60646;55.802;37.032;2023-11-19T02:41:47;100497.97;;;-2.22
67515;BMP280;60646;55.802;37.032;2023-11-19T02:44:17;100494.22;;;-2.21
67515;BMP280;60646;55.802;37.032;2023-11-19T02:46:43;100488.25;;;-2.21
67515;BMP280;60646;55.802;37.032;2023-11-19T02:49:08;100492.00;;;-2.18
67515;BMP280;60646;55.802;37.032;2023-11-19T02:51:34;100494.25;;;-2.17
67515;BMP280;60646;55.802;37.032;2023-11-19T02:54:01;100507.00;;;-2.08
67515;BMP280;60646;55.802;37.032;2023-11-19T02:56:29;100496.53;;;-2.08
67515;BMP280;60646;55.802;37.032;2023-11-19T02:59:01;100501.03;;;-2.05
67515;BMP280;60646;55.802;37.032;2023-11-19T03:01:37;100482.69;;;-2.12
67515;BMP280;60646;55.802;37.032;2023-11-19T03:04:03;100500.28;;;-2.02
67515;BMP280;60646;55.802;37.032;2023-11-19T03:06:29;100481.56;;;-2.11
67515;BMP280;60646;55.802;37.032;2023-11-19T03:08:55;100478.59;;;-2.10
67515;BMP280;60646;55.802;37.032;2023-11-19T03:11:21;100485.34;;;-2.02
67515;BMP280;60646;55.802;37.032;2023-11-19T03:13:47;100475.22;;;-2.03
67515;BMP280;60646;55.802;37.032;2023-11-19T03:16:13;100480.88;;;-2.01
67515;BMP280;60646;55.802;37.032;2023-11-19T03:18:39;100469.63;;;-2.05
67515;BMP280;60646;55.802;37.032;2023-11-19T03:21:08;100485.75;;;-1.89
67515;BMP280;60646;55.802;37.032;2023-11-19T03:23:34;100460.28;;;-2.03
67515;BMP280;60646;55.802;37.032;2023-11-19T03:26:01;100483.91;;;-1.85
67515;BMP280;60646;55.802;37.032;2023-11-19T03:28:31;100489.16;;;-1.85
67515;BMP280;60646;55.802;37.032;2023-11-19T03:30:57;100476.41;;;-1.90
67515;BMP280;60646;55.802;37.032;2023-11-19T03:33:23;100489.91;;;-1.81
67515;BMP280;60646;55.802;37.032;2023-11-19T03:35:48;100483.22;;;-1.79
67515;BMP280;60646;55.802;37.032;2023-11-19T03:38:14;100468.59;;;-1.87
67515;BMP280;60646;55.802;37.032;2023-11-19T03:40:40;100464.50;;;-1.84
67515;BMP280;60646;55.802;37.032;2023-11-19T03:43:06;100472.75;;;-1.75
67515;BMP280;60646;55.802;37.032;2023-11-19T03:45:32;100454.78;;;-1.80
67515;BMP280;60646;55.802;37.032;2023-11-19T03:47:58;100451.78;;;-1.82
67515;BMP280;60646;55.802;37.032;2023-11-19T03:50:23;100455.16;;;-1.78
67515;BMP280;60646;55.802;37.032;2023-11-19T03:52:49;100438.66;;;-1.86
67515;BMP280;60646;55.802;37.032;2023-11-19T03:55:15;100444.31;;;-1.80
67515;BMP280;60646;55.802;37.032;2023-11-19T03:57:41;100458.53;;;-1.74
67515;BMP280;60646;55.802;37.032;2023-11-19T04:00:07;100425.56;;;-1.89
67515;BMP280;60646;55.802;37.032;2023-11-19T04:02:40;100455.53;;;-1.76
67515;BMP280;60646;55.802;37.032;2023-11-19T04:05:07;100434.53;;;-1.87
67515;BMP280;60646;55.802;37.032;2023-11-19T04:07:33;100427.81;;;-1.91
67515;BMP280;60646;55.802;37.032;2023-11-19T04:09:59;100445.06;;;-1.83
67515;BMP280;60646;55.802;37.032;2023-11-19T04:12:25;100433.78;;;-1.87
67515;BMP280;60646;55.802;37.032;2023-11-19T04:14:51;100451.78;;;-1.79
67515;BMP280;60646;55.802;37.032;2023-11-19T04:17:18;100440.56;;;-1.83
67515;BMP280;60646;55.802;37.032;2023-11-19T04:19:44;100432.31;;;-1.81
67515;BMP280;60646;55.802;37.032;2023-11-19T04:22:10;100439.09;;;-1.73
67515;BMP280;60646;55.802;37.032;2023-11-19T04:24:36;100431.59;;;-1.78
67515;BMP280;60646;55.802;37.032;2023-11-19T04:27:05;100424.50;;;-1.74
67515;BMP280;60646;55.802;37.032;2023-11-19T04:29:32;100415.13;;;-1.79
67515;BMP280;60646;55.802;37.032;2023-11-19T04:31:58;100419.25;;;-1.74
67515;BMP280;60646;55.802;37.032;2023-11-19T04:34:27;100421.88;;;-1.78
67515;BMP280;60646;55.802;37.032;2023-11-19T04:36:52;100433.09;;;-1.63
67515;BMP280;60646;55.802;37.032;2023-11-19T04:39:18;100438.72;;;-1.64
67515;BMP280;60646;55.802;37.032;2023-11-19T04:41:48;100430.50;;;-1.56
67515;BMP280;60646;55.802;37.032;2023-11-19T04:44:18;100432.38;;;-1.53
67515;BMP280;60646;55.802;37.032;2023-11-19T04:46:45;100443.59;;;-1.52
67515;BMP280;60646;55.802;37.032;2023-11-19T04:49:13;100429.38;;;-1.62
67515;BMP280;60646;55.802;37.032;2023-11-19T04:51:40;100425.63;;;-1.57
67515;BMP280;60646;55.802;37.032;2023-11-19T04:54:08;100448.84;;;-1.49
67515;BMP280;60646;55.802;37.032;2023-11-19T04:56:35;100421.91;;;-1.60
67515;BMP280;60646;55.802;37.032;2023-11-19T04:59:03;100445.84;;;-1.44
67515;BMP280;60646;55.802;37.032;2023-11-19T05:01:29;100430.13;;;-1.51
67515;BMP280;60646;55.802;37.032;2023-11-19T05:03:56;100436.13;;;-1.47
67515;BMP280;60646;55.802;37.032;2023-11-19T05:06:28;100443.97;;;-1.40
67515;BMP280;60646;55.802;37.032;2023-11-19T05:09:00;100443.63;;;-1.42
67515;BMP280;60646;55.802;37.032;2023-11-19T05:11:30;100448.09;;;-1.35
67515;BMP280;60646;55.802;37.032;2023-11-19T05:13:56;100441.34;;;-1.40
67515;BMP280;60646;55.802;37.032;2023-11-19T05:16:22;100450.38;;;-1.30
67515;BMP280;60646;55.802;37.032;2023-11-19T05:18:48;100450.38;;;-1.26
67515;BMP280;60646;55.802;37.032;2023-11-19T05:21:14;100457.88;;;-1.21
67515;BMP280;60646;55.802;37.032;2023-11-19T05:23:40;100448.88;;;-1.20
67515;BMP280;60646;55.802;37.032;2023-11-19T05:26:07;100438.78;;;-1.25
67515;BMP280;60646;55.802;37.032;2023-11-19T05:28:33;100433.19;;;-1.27
67515;BMP280;60646;55.802;37.032;2023-11-19T05:30:59;100454.13;;;-1.13
67515;BMP280;60646;55.802;37.032;2023-11-19T05:33:25;100460.13;;;-1.09
67515;BMP280;60646;55.802;37.032;2023-11-19T05:35:50;100454.13;;;-1.13
67515;BMP280;60646;55.802;37.032;2023-11-19T05:38:16;100454.50;;;-1.11
67515;BMP280;60646;55.802;37.032;2023-11-19T05:40:43;100449.25;;;-1.11
67515;BMP280;60646;55.802;37.032;2023-11-19T05:43:09;100446.63;;;-1.11
67515;BMP280;60646;55.802;37.032;2023-11-19T05:45:34;100453.38;;;-0.96
67515;BMP280;60646;55.802;37.032;2023-11-19T05:48:00;100455.25;;;-0.93
67515;BMP280;60646;55.802;37.032;2023-11-19T05:50:26;100446.63;;;-0.97
67515;BMP280;60646;55.802;37.032;2023-11-19T05:52:52;100440.66;;;-1.01
67515;BMP280;60646;55.802;37.032;2023-11-19T05:55:19;100448.13;;;-0.93
67515;BMP280;60646;55.802;37.032;2023-11-19T05:57:45;100445.88;;;-0.87
67515;BMP280;60646;55.802;37.032;2023-11-19T06:00:11;100437.63;;;-0.89
67515;BMP280;60646;55.802;37.032;2023-11-19T06:02:39;100443.59;;;-0.85
67515;BMP280;60646;55.802;37.032;2023-11-19T06:05:05;100457.06;;;-0.76
67515;BMP280;60646;55.802;37.032;2023-11-19T06:07:33;100433.09;;;-0.81
67515;BMP280;60646;55.802;37.032;2023-11-19T06:09:59;100439.09;;;-0.74
67515;BMP280;60646;55.802;37.032;2023-11-19T06:12:25;100446.56;;;-0.65
67515;BMP280;60646;55.802;37.032;2023-11-19T06:14:53;100436.84;;;-0.68
67515;BMP280;60646;55.802;37.032;2023-11-19T06:17:20;100427.84;;;-0.71
67515;BMP280;60646;55.802;37.032;2023-11-19T06:19:46;100439.47;;;-0.65
67515;BMP280;60646;55.802;37.032;2023-11-19T06:22:12;100448.41;;;-0.52
67515;BMP280;60646;55.802;37.032;2023-11-19T06:24:37;100439.44;;;-0.51
67515;BMP280;60646;55.802;37.032;2023-11-19T06:27:03;100430.81;;;-0.55
67515;BMP280;60646;55.802;37.032;2023-11-19T06:29:30;100431.56;;;-0.51
67515;BMP280;60646;55.802;37.032;2023-11-19T06:31:56;100437.53;;;-0.47
67515;BMP280;60646;55.802;37.032;2023-11-19T06:34:22;100442.00;;;-0.36
67515;BMP280;60646;55.802;37.032;2023-11-19T06:36:48;100438.22;;;-0.35
67515;BMP280;60646;55.802;37.032;2023-11-19T06:39:14;100431.50;;;-0.44
67515;BMP280;60646;55.802;37.032;2023-11-19T06:41:45;100441.25;;;-0.30
67515;BMP280;60646;55.802;37.032;2023-11-19T06:47:50;100435.97;;;-0.26
67515;BMP280;60646;55.802;37.032;2023-11-19T06:50:16;100435.22;;;-0.23
67515;BMP280;60646;55.802;37.032;2023-11-19T06:52:42;100416.50;;;-0.29
67515;BMP280;60646;55.802;37.032;2023-11-19T06:55:08;100420.56;;;-0.17
67515;BMP280;60646;55.802;37.032;2023-11-19T06:57:34;100430.66;;;-0.09
67515;BMP280;60646;55.802;37.032;2023-11-19T07:00:00;100422.03;;;-0.09
67515;BMP280;60646;55.802;37.032;2023-11-19T07:02:26;100432.88;;;0.00
67515;BMP280;60646;55.802;37.032;2023-11-19T07:04:52;100424.63;;;-0.02
67515;BMP280;60646;55.802;37.032;2023-11-19T07:07:18;100429.06;;;0.08
67515;BMP280;60646;55.802;37.032;2023-11-19T07:09:43;100425.72;;;0.04
67515;BMP280;60646;55.802;37.032;2023-11-19T07:12:09;100435.78;;;0.16
67515;BMP280;60646;55.802;37.032;2023-11-19T07:14:35;100417.84;;;0.04
67515;BMP280;60646;55.802;37.032;2023-11-19T07:17:01;100431.28;;;0.17
67515;BMP280;60646;55.802;37.032;2023-11-19T07:19:26;100440.97;;;0.23
67515;BMP280;60646;55.802;37.032;2023-11-19T07:21:52;100433.47;;;0.25
67515;BMP280;60646;55.802;37.032;2023-11-19T07:24:20;100431.25;;;0.20
67515;BMP280;60646;55.802;37.032;2023-11-19T07:26:47;100434.56;;;0.28
67515;BMP280;60646;55.802;37.032;2023-11-19T07:29:14;100437.91;;;0.32
67515;BMP280;60646;55.802;37.032;2023-11-19T07:31:42;100434.88;;;0.33
67515;BMP280;60646;55.802;37.032;2023-11-19T07:34:10;100437.88;;;0.35
67515;BMP280;60646;55.802;37.032;2023-11-19T07:36:55;100439.38;;;0.36
67515;BMP280;60646;55.802;37.032;2023-11-19T07:39:25;100438.56;;;0.43
67515;BMP280;60646;55.802;37.032;2023-11-19T07:41:51;100436.31;;;0.45
67515;BMP280;60646;55.802;37.032;2023-11-19T07:44:17;100416.13;;;0.35
67515;BMP280;60646;55.802;37.032;2023-11-19T07:46:43;100428.75;;;0.51
67515;BMP280;60646;55.802;37.032;2023-11-19T07:49:10;100425.06;;;0.44
67515;BMP280;60646;55.802;37.032;2023-11-19T07:51:36;100435.09;;;0.57
67515;BMP280;60646;55.802;37.032;2023-11-19T07:54:02;100417.50;;;0.54
67515;BMP280;60646;55.802;37.032;2023-11-19T07:56:28;100414.44;;;0.59
67515;BMP280;60646;55.802;37.032;2023-11-19T07:58:54;100418.94;;;0.62
67515;BMP280;60646;55.802;37.032;2023-11-19T08:01:19;100406.19;;;0.57
67515;BMP280;60646;55.802;37.032;2023-11-19T08:03:45;100424.13;;;0.69
67515;BMP280;60646;55.802;37.032;2023-11-19T08:06:12;100422.66;;;0.68
67515;BMP280;60646;55.802;37.032;2023-11-19T08:08:37;100419.59;;;0.69
67515;BMP280;60646;55.802;37.032;2023-11-19T08:11:04;100421.81;;;0.74
67515;BMP280;60646;55.802;37.032;2023-11-19T08:13:31;100420.28;;;0.80
67515;BMP280;60646;55.802;37.032;2023-11-19T08:15:57;100422.44;;;0.89
67515;BMP280;60646;55.802;37.032;2023-11-19T08:18:24;100400.72;;;0.85
67515;BMP280;60646;55.802;37.032;2023-11-19T08:20:50;100409.66;;;0.91
67515;BMP280;60646;55.802;37.032;2023-11-19T08:23:20;100413.72;;;0.99
67515;BMP280;60646;55.802;37.032;2023-11-19T08:25:46;100398.69;;;1.00
67515;BMP280;60646;55.802;37.032;2023-11-19T08:28:12;100396.03;;;1.03
67515;BMP280;60646;55.802;37.032;2023-11-19T08:30:38;100384.44;;;0.97
67515;BMP280;60646;55.802;37.032;2023-11-19T08:33:07;100411.66;;;1.17
67515;BMP280;60646;55.802;37.032;2023-11-19T08:35:33;100395.19;;;1.10
67515;BMP280;60646;55.802;37.032;2023-11-19T08:37:59;100408.59;;;1.22
67515;BMP280;60646;55.802;37.032;2023-11-19T08:40:25;100407.78;;;1.29
67515;BMP280;60646;55.802;37.032;2023-11-19T08:42:53;100397.28;;;1.25
67515;BMP280;60646;55.802;37.032;2023-11-19T08:45:19;100396.13;;;1.30
67515;BMP280;60646;55.802;37.032;2023-11-19T08:47:45;100408.78;;;1.38
67515;BMP280;60646;55.802;37.032;2023-11-19T08:50:11;100412.09;;;1.43
67515;BMP280;60646;55.802;37.032;2023-11-19T08:52:37;100398.63;;;1.41
67515;BMP280;60646;55.802;37.032;2023-11-19T08:55:04;100409.78;;;1.48
67515;BMP280;60646;55.802;37.032;2023-11-19T08:57:32;100393.69;;;1.43
67515;BMP280;60646;55.802;37.032;2023-11-19T08:59:59;100398.13;;;1.49
67515;BMP280;60646;55.802;37.032;2023-11-19T09:02:25;100395.84;;;1.51
67515;BMP280;60646;55.802;37.032;2023-11-19T09:04:51;100402.22;;;1.54
67515;BMP280;60646;55.802;37.032;2023-11-19T09:07:17;100400.28;;;1.58
67515;BMP280;60646;55.802;37.032;2023-11-19T09:09:42;100389.34;;;1.59
67515;BMP280;60646;55.802;37.032;2023-11-19T09:12:08;100399.06;;;1.66
67515;BMP280;60646;55.802;37.032;2023-11-19T09:14:34;100370.63;;;1.54
67515;BMP280;60646;55.802;37.032;2023-11-19T09:17:00;100383.94;;;1.70
67515;BMP280;60646;55.802;37.032;2023-11-19T09:19:26;100377.88;;;1.73
67515;BMP280;60646;55.802;37.032;2023-11-19T09:21:53;100362.88;;;1.70
67515;BMP280;60646;55.802;37.032;2023-11-19T09:24:18;100357.56;;;1.73
67515;BMP280;60646;55.802;37.032;2023-11-19T09:26:44;100372.53;;;1.80
67515;BMP280;60646;55.802;37.032;2023-11-19T09:29:11;100363.50;;;1.81
67515;BMP280;60646;55.802;37.032;2023-11-19T09:31:40;100372.09;;;1.85
67515;BMP280;60646;55.802;37.032;2023-11-19T09:34:06;100364.50;;;1.87
67515;BMP280;60646;55.802;37.032;2023-11-19T09:36:31;100348.47;;;1.78
67515;BMP280;60646;55.802;37.032;2023-11-19T09:38:57;100357.28;;;1.91
67515;BMP280;60646;55.802;37.032;2023-11-19T09:41:25;100339.31;;;1.86
67515;BMP280;60646;55.802;37.032;2023-11-19T09:43:54;100329.47;;;1.90
67515;BMP280;60646;55.802;37.032;2023-11-19T09:46:20;100335.44;;;1.94
67515;BMP280;60646;55.802;37.032;2023-11-19T09:48:47;100330.97;;;1.91
67515;BMP280;60646;55.802;37.032;2023-11-19T09:51:18;100334.31;;;1.95
67515;BMP280;60646;55.802;37.032;2023-11-19T09:53:44;100314.16;;;1.85
67515;BMP280;60646;55.802;37.032;2023-11-19T09:56:11;100322.59;;;1.96
67515;BMP280;60646;55.802;37.032;2023-11-19T09:58:38;100316.19;;;1.97
67515;BMP280;60646;55.802;37.032;2023-11-19T10:01:04;100312.06;;;1.96
67515;BMP280;60646;55.802;37.032;2023-11-19T10:03:35;100294.88;;;1.88
67515;BMP280;60646;55.802;37.032;2023-11-19T10:06:09;100302.34;;;1.93
67515;BMP280;60646;55.802;37.032;2023-11-19T10:08:37;100300.84;;;1.92
67515;BMP280;60646;55.802;37.032;2023-11-19T10:11:06;100302.41;;;1.90
67515;BMP280;60646;55.802;37.032;2023-11-19T10:13:34;100294.22;;;1.84
67515;BMP280;60646;55.802;37.032;2023-11-19T10:16:07;100302.47;;;1.86
67515;BMP280;60646;55.802;37.032;2023-11-19T10:18:34;100304.41;;;1.82
67515;BMP280;60646;55.802;37.032;2023-11-19T10:21:05;100309.03;;;1.74
67515;BMP280;60646;55.802;37.032;2023-11-19T10:23:56;100307.16;;;1.75
67515;BMP280;60646;55.802;37.032;2023-11-19T10:26:26;100286.34;;;1.57
67515;BMP280;60646;55.802;37.032;2023-11-19T10:28:53;100284.44;;;1.58
67515;BMP280;60646;55.802;37.032;2023-11-19T10:31:20;100298.31;;;1.62
67515;BMP280;60646;55.802;37.032;2023-11-19T10:33:51;100282.50;;;1.62
67515;BMP280;60646;55.802;37.032;2023-11-19T10:36:17;100277.38;;;1.51
67515;BMP280;60646;55.802;37.032;2023-11-19T10:38:55;100291.22;;;1.59
67515;BMP280;60646;55.802;37.032;2023-11-19T10:41:31;100281.81;;;1.58
67515;BMP280;60646;55.802;37.032;2023-11-19T10:43:57;100285.34;;;1.48
67515;BMP280;60646;55.802;37.032;2023-11-19T10:46:39;100291.69;;;1.50
67515;BMP280;60646;55.802;37.032;2023-11-19T10:49:09;100285.34;;;1.48
67515;BMP280;60646;55.802;37.032;2023-11-19T10:51:36;100298.38;;;1.55
67515;BMP280;60646;55.802;37.032;2023-11-19T10:54:05;100303.31;;;1.53
67515;BMP280;60646;55.802;37.032;2023-11-19T10:56:32;100307.09;;;1.52
67515;BMP280;60646;55.802;37.032;2023-11-19T10:59:02;100309.34;;;1.53
67515;BMP280;60646;55.802;37.032;2023-11-19T11:01:45;100293.63;;;1.46
67515;BMP280;60646;55.802;37.032;2023-11-19T11:04:14;100304.47;;;1.52
67515;BMP280;60646;55.802;37.032;2023-11-19T11:06:43;100284.25;;;1.45
67515;BMP280;60646;55.802;37.032;2023-11-19T11:09:10;100289.41;;;1.52
67515;BMP280;60646;55.802;37.032;2023-11-19T11:11:41;100303.66;;;1.55
67515;BMP280;60646;55.802;37.032;2023-11-19T11:14:12;100281.22;;;1.47
67515;BMP280;60646;55.802;37.032;2023-11-19T11:16:42;100300.63;;;1.56
67515;BMP280;60646;55.802;37.032;2023-11-19T11:19:09;100293.88;;;1.55
67515;BMP280;60646;55.802;37.032;2023-11-19T11:21:36;100289.72;;;1.58
67515;BMP280;60646;55.802;37.032;2023-11-19T11:29:58;100290.66;;;1.71
67515;BMP280;60646;55.802;37.032;2023-11-19T11:32:49;100287.22;;;1.74
67515;BMP280;60646;55.802;37.032;2023-11-19T11:37:47;100273.03;;;1.68
67515;BMP280;60646;55.802;37.032;2023-11-19T11:40:16;100277.00;;;1.79
67515;BMP280;60646;55.802;37.032;2023-11-19T11:42:45;100268.78;;;1.74
67515;BMP280;60646;55.802;37.032;2023-11-19T11:45:12;100278.41;;;1.84
67515;BMP280;60646;55.802;37.032;2023-11-19T11:50:16;100263.44;;;1.81
67515;BMP280;60646;55.802;37.032;2023-11-19T11:55:34;100264.56;;;1.80
67515;BMP280;60646;55.802;37.032;2023-11-19T11:58:00;100269.38;;;1.85
67515;BMP280;60646;55.802;37.032;2023-11-19T12:00:29;100267.06;;;1.87
67515;BMP280;60646;55.802;37.032;2023-11-19T12:02:56;100254.38;;;1.82
67515;BMP280;60646;55.802;37.032;2023-11-19T12:05:22;100266.41;;;1.83
67515;BMP280;60646;55.802;37.032;2023-11-19T12:07:55;100254.38;;;1.82
67515;BMP280;60646;55.802;37.032;2023-11-19T12:10:24;100242.47;;;1.74
67515;BMP280;60646;55.802;37.032;2023-11-19T12:12:53;100263.28;;;1.88
67515;BMP280;60646;55.802;37.032;2023-11-19T12:15:19;100262.94;;;1.86
67515;BMP280;60646;55.802;37.032;2023-11-19T12:17:51;100253.97;;;1.83
67515;BMP280;60646;55.802;37.032;2023-11-19T12:20:19;100261.03;;;1.87
67515;BMP280;60646;55.802;37.032;2023-11-19T12:22:46;100259.63;;;1.82
67515;BMP280;60646;55.802;37.032;2023-11-19T12:25:12;100259.50;;;1.89
67515;BMP280;60646;55.802;37.032;2023-11-19T12:27:45;100243.88;;;1.78
67515;BMP280;60646;55.802;37.032;2023-11-19T12:30:12;100254.25;;;1.89
67515;BMP280;60646;55.802;37.032;2023-11-19T12:32:44;100257.69;;;1.86
67515;BMP280;60646;55.802;37.032;2023-11-19T12:35:10;100262.16;;;1.89
67515;BMP280;60646;55.802;37.032;2023-11-19T12:37:43;100259.50;;;1.89
67515;BMP280;60646;55.802;37.032;2023-11-19T12:40:17;100252.00;;;1.88
67515;BMP280;60646;55.802;37.032;2023-11-19T12:42:49;100257.69;;;1.86
67515;BMP280;60646;55.802;37.032;2023-11-19T12:45:16;100255.47;;;1.85
67515;BMP280;60646;55.802;37.032;2023-11-19T12:47:43;100256.59;;;1.83
67515;BMP280;60646;55.802;37.032;2023-11-19T12:50:10;100257.00;;;1.82
67515;BMP280;60646;55.802;37.032;2023-11-19T12:52:36;100239.44;;;1.75
67515;BMP280;60646;55.802;37.032;2023-11-19T12:57:58;100237.56;;;1.76
67515;BMP280;60646;55.802;37.032;2023-11-19T13:00:26;100234.91;;;1.76
67515;BMP280;60646;55.802;37.032;2023-11-19T13:02:54;100228.97;;;1.72
67515;BMP280;60646;55.802;37.032;2023-11-19T13:07:47;100219.66;;;1.64
67515;BMP280;60646;55.802;37.032;2023-11-19T13:10:19;100232.66;;;1.74
67515;BMP280;60646;55.802;37.032;2023-11-19T13:13:02;100220.00;;;1.66
67515;BMP280;60646;55.802;37.032;2023-11-19T13:15:35;100219.22;;;1.69
67515;BMP280;60646;55.802;37.032;2023-11-19T13:22:26;100214.75;;;1.66
67515;BMP280;60646;55.802;37.032;2023-11-19T13:25:02;100202.84;;;1.58
67515;BMP280;60646;55.802;37.032;2023-11-19T13:28:00;100207.66;;;1.63
67515;BMP280;60646;55.802;37.032;2023-11-19T13:30:47;100210.28;;;1.63
67515;BMP280;60646;55.802;37.032;2023-11-19T13:33:22;100193.09;;;1.55
67515;BMP280;60646;55.802;37.032;2023-11-19T13:35:55;100201.28;;;1.60
67515;BMP280;60646;55.802;37.032;2023-11-19T13:38:36;100205.81;;;1.60
67515;BMP280;60646;55.802;37.032;2023-11-19T13:41:52;100192.31;;;1.58
67515;BMP280;60646;55.802;37.032;2023-11-19T13:44:49;100193.81;;;1.59
67515;BMP280;60646;55.802;37.032;2023-11-19T13:47:18;100181.19;;;1.47
67515;BMP280;60646;55.802;37.032;2023-11-19T13:49:56;100198.34;;;1.55
67515;BMP280;60646;55.802;37.032;2023-11-19T13:52:22;100186.47;;;1.47
67515;BMP280;60646;55.802;37.032;2023-11-19T13:54:51;100187.25;;;1.44
67515;BMP280;60646;55.802;37.032;2023-11-19T13:57:22;100199.97;;;1.49
67515;BMP280;60646;55.802;37.032;2023-11-19T14:00:15;100194.81;;;1.42
67515;BMP280;60646;55.802;37.032;2023-11-19T14:03:06;100197.09;;;1.40
67515;BMP280;60646;55.802;37.032;2023-11-19T14:09:28;100206.88;;;1.39
67515;BMP280;60646;55.802;37.032;2023-11-19T14:12:40;100208.31;;;1.44
67515;BMP280;60646;55.802;37.032;2023-11-19T14:15:17;100202.75;;;1.38
67515;BMP280;60646;55.802;37.032;2023-11-19T14:17:49;100197.88;;;1.36
67515;BMP280;60646;55.802;37.032;2023-11-19T14:20:15;100197.56;;;1.34
67515;BMP280;60646;55.802;37.032;2023-11-19T14:22:44;100188.31;;;1.26
67515;BMP280;60646;55.802;37.032;2023-11-19T14:25:13;100195.09;;;1.24
67515;BMP280;60646;55.802;37.032;2023-11-19T14:27:40;100204.78;;;1.30
67515;BMP280;60646;55.802;37.032;2023-11-19T14:30:08;100199.16;;;1.28